createdAt,value
2017-10-24T00:02:29.728Z,1.67
2017-10-24T00:05:03.530Z,2.00
2017-10-24T00:07:37.026Z,2.00
2017-10-24T00:10:10.506Z,1.93
2017-10-24T00:12:45.049Z,1.83
2017-10-24T00:15:18.622Z,1.60
2017-10-24T00:17:52.473Z,1.60
2017-10-24T00:20:26.982Z,2.43
2017-10-24T00:23:00.583Z,2.20
2017-10-24T00:25:34.182Z,2.07
2017-10-24T00:28:07.782Z,1.80
2017-10-24T00:30:41.993Z,1.70
2017-10-24T00:33:15.609Z,1.80
2017-10-24T00:35:49.402Z,1.67
2017-10-24T00:38:22.962Z,1.50
2017-10-24T00:40:56.690Z,1.90
2017-10-24T00:43:30.442Z,2.60
2017-10-24T00:46:04.210Z,2.00
2017-10-24T00:48:38.017Z,2.00
2017-10-24T00:51:11.991Z,1.83
2017-10-24T00:53:45.630Z,1.80
2017-10-24T00:56:19.125Z,1.73
2017-10-24T00:58:53.442Z,1.23
2017-10-24T01:01:27.058Z,1.37
2017-10-24T01:04:00.547Z,1.50
2017-10-24T01:06:34.145Z,1.17
2017-10-24T01:09:07.642Z,1.43
2017-10-24T01:11:41.250Z,1.20
2017-10-24T01:14:14.846Z,1.50
2017-10-24T01:16:48.287Z,1.10
2017-10-24T01:19:21.949Z,1.30
2017-10-24T01:21:55.546Z,1.20
2017-10-24T01:24:29.102Z,1.23
2017-10-24T01:27:02.794Z,1.50
2017-10-24T01:29:36.410Z,1.30
2017-10-24T01:32:09.898Z,1.67
2017-10-24T01:34:43.409Z,1.30
2017-10-24T01:37:17.067Z,1.40
2017-10-24T01:39:50.694Z,1.23
2017-10-24T01:42:24.318Z,1.73
2017-10-24T01:44:58.059Z,1.27
2017-10-24T01:47:31.722Z,1.10
2017-10-24T01:50:05.257Z,1.53
2017-10-24T01:52:38.834Z,1.20
2017-10-24T01:55:12.423Z,1.10
2017-10-24T01:57:46.062Z,1.13
2017-10-24T02:00:19.626Z,1.30
2017-10-24T02:02:53.268Z,1.10
2017-10-24T02:05:26.731Z,1.33
2017-10-24T02:08:00.458Z,1.17
2017-10-24T02:10:34.167Z,2.30
2017-10-24T02:13:07.644Z,1.60
2017-10-24T02:15:42.165Z,1.13
2017-10-24T02:18:15.774Z,1.57
2017-10-24T02:20:49.603Z,2.10
2017-10-24T02:23:23.151Z,1.50
2017-10-24T02:25:56.754Z,1.53
2017-10-24T02:28:30.354Z,1.10
2017-10-24T02:31:03.906Z,1.80
2017-10-24T02:33:37.493Z,1.40
2017-10-24T02:36:11.099Z,1.13
2017-10-24T02:38:44.702Z,1.17
2017-10-24T02:41:18.411Z,1.50
2017-10-24T02:43:51.902Z,1.10
2017-10-24T02:46:25.711Z,1.60
2017-10-24T02:48:59.998Z,1.20
2017-10-24T02:51:33.726Z,1.20
2017-10-24T02:54:07.335Z,1.23
2017-10-24T02:56:40.896Z,1.53
2017-10-24T02:59:14.518Z,1.53
2017-10-24T03:01:48.126Z,1.97
2017-10-24T03:04:21.630Z,2.17
2017-10-24T03:06:55.122Z,2.60
2017-10-24T03:09:28.740Z,2.60
2017-10-24T03:12:02.435Z,5.77
2017-10-24T03:14:36.342Z,6.10
2017-10-24T03:17:09.833Z,5.23
2017-10-24T03:19:43.552Z,6.43
2017-10-24T03:22:17.451Z,7.00
2017-10-24T03:24:51.255Z,7.50
2017-10-24T03:27:24.835Z,7.03
2017-10-24T03:29:58.386Z,8.20
2017-10-24T03:32:32.969Z,7.97
2017-10-24T03:35:06.484Z,7.10
2017-10-24T03:37:39.950Z,8.77
2017-10-24T03:40:13.576Z,8.03
2017-10-24T03:42:47.179Z,8.70
2017-10-24T03:45:21.515Z,9.67
2017-10-24T03:47:55.249Z,7.83
2017-10-24T03:50:28.791Z,8.70
2017-10-24T03:53:02.316Z,7.50
2017-10-24T03:55:36.102Z,9.20
2017-10-24T03:58:09.797Z,10.00
2017-10-24T04:00:44.619Z,8.50
2017-10-24T04:03:18.338Z,8.63
2017-10-24T04:05:51.933Z,8.53
2017-10-24T04:08:26.666Z,10.07
2017-10-24T04:11:00.342Z,9.63
2017-10-24T04:13:33.976Z,8.90
2017-10-24T04:16:07.571Z,8.90
2017-10-24T04:18:41.273Z,9.13
2017-10-24T04:21:14.834Z,8.17
2017-10-24T04:23:48.280Z,7.93
2017-10-24T04:26:21.939Z,8.60
2017-10-24T04:28:55.575Z,7.33
2017-10-24T04:31:29.967Z,8.33
2017-10-24T04:34:03.565Z,8.10
2017-10-24T04:36:37.210Z,6.30
2017-10-24T04:39:10.801Z,7.37
2017-10-24T04:41:44.371Z,7.40
2017-10-24T04:44:18.000Z,7.40
2017-10-24T04:46:51.602Z,6.23
2017-10-24T04:49:25.298Z,7.17
2017-10-24T04:51:58.985Z,6.97
2017-10-24T04:54:32.615Z,5.97
2017-10-24T04:57:06.187Z,6.60
2017-10-24T04:59:39.816Z,6.50
2017-10-24T05:02:14.023Z,6.63
2017-10-24T05:04:47.822Z,6.93
2017-10-24T05:07:21.298Z,6.40
2017-10-24T05:09:54.887Z,6.67
2017-10-24T05:12:28.391Z,6.00
2017-10-24T05:15:02.847Z,5.93
2017-10-24T05:17:36.446Z,5.87
2017-10-24T05:20:10.003Z,5.90
2017-10-24T05:22:43.498Z,5.77
2017-10-24T05:25:17.131Z,5.50
2017-10-24T05:27:50.702Z,5.50
2017-10-24T05:30:24.143Z,5.20
2017-10-24T05:32:57.858Z,6.00
2017-10-24T05:35:31.426Z,6.20
2017-10-24T05:38:05.023Z,5.50
2017-10-24T05:40:38.646Z,5.70
2017-10-24T05:43:12.361Z,6.53
2017-10-24T05:45:46.670Z,6.87
2017-10-24T05:48:21.185Z,6.20
2017-10-24T05:50:54.762Z,6.17
2017-10-24T05:53:28.338Z,6.13
2017-10-24T05:56:02.014Z,7.80
2017-10-24T05:58:35.575Z,8.47
2017-10-24T06:01:09.196Z,6.53
2017-10-24T06:03:42.790Z,8.73
2017-10-24T06:06:16.290Z,7.97
2017-10-24T06:08:49.894Z,8.83
2017-10-24T06:11:23.498Z,9.30
2017-10-24T06:13:57.513Z,8.57
2017-10-24T06:16:31.155Z,9.87
2017-10-24T06:19:05.151Z,9.70
2017-10-24T06:21:39.538Z,10.93
2017-10-24T06:24:13.126Z,9.30
2017-10-24T06:26:47.427Z,10.13
2017-10-24T06:29:21.142Z,10.10
2017-10-24T06:31:54.728Z,9.93
2017-10-24T06:34:28.954Z,9.60
2017-10-24T06:37:02.526Z,9.17
2017-10-24T06:39:36.278Z,9.30
2017-10-24T06:42:09.847Z,8.33
2017-10-24T06:44:43.463Z,8.60
2017-10-24T06:47:17.043Z,8.00
2017-10-24T06:49:50.793Z,7.20
2017-10-24T06:52:24.391Z,7.10
2017-10-24T06:54:58.103Z,6.40
2017-10-24T06:57:31.794Z,7.17
2017-10-24T07:00:05.714Z,6.53
2017-10-24T07:02:39.186Z,6.67
2017-10-24T07:05:12.891Z,7.27
2017-10-24T07:07:46.547Z,6.60
2017-10-24T07:10:20.118Z,7.00
2017-10-24T07:12:54.499Z,7.10
2017-10-24T07:15:28.017Z,6.37
2017-10-24T07:18:01.581Z,7.33
2017-10-24T07:20:35.178Z,9.80
2017-10-24T07:23:08.722Z,8.70
2017-10-24T07:25:42.433Z,9.40
2017-10-24T07:28:16.030Z,10.23
2017-10-24T07:30:49.526Z,9.40
2017-10-24T07:33:23.127Z,10.00
2017-10-24T07:35:56.714Z,10.10
2017-10-24T07:38:30.738Z,9.10
2017-10-24T07:41:04.419Z,10.20
2017-10-24T07:43:37.994Z,9.73
2017-10-24T07:46:11.538Z,9.40
2017-10-24T07:48:45.151Z,11.50
2017-10-24T07:51:18.884Z,10.37
2017-10-24T07:53:52.563Z,11.50
2017-10-24T07:56:26.227Z,10.07
2017-10-24T07:58:59.949Z,11.03
2017-10-24T08:01:33.560Z,11.50
2017-10-24T08:04:07.050Z,11.73
2017-10-24T08:06:40.650Z,10.47
2017-10-24T08:09:14.354Z,11.80
2017-10-24T08:11:47.964Z,10.20
2017-10-24T08:14:21.495Z,9.90
2017-10-24T08:16:55.115Z,10.23
2017-10-24T08:19:29.474Z,9.83
2017-10-24T08:22:03.174Z,10.00
2017-10-24T08:24:37.599Z,11.10
2017-10-24T08:27:12.102Z,11.20
2017-10-24T08:29:45.814Z,10.37
2017-10-24T08:32:19.426Z,10.63
2017-10-24T08:34:52.989Z,9.60
2017-10-24T08:37:26.523Z,11.47
2017-10-24T08:39:59.974Z,9.20
2017-10-24T08:42:33.679Z,9.43
2017-10-24T08:45:07.322Z,9.90
2017-10-24T08:47:41.006Z,9.50
2017-10-24T08:50:14.587Z,9.80
2017-10-24T08:52:48.106Z,9.07
2017-10-24T08:55:22.045Z,10.90
2017-10-24T08:57:55.619Z,8.80
2017-10-24T09:00:29.246Z,8.20
2017-10-24T09:03:02.839Z,9.50
2017-10-24T09:05:37.150Z,7.50
2017-10-24T09:08:15.982Z,8.30
2017-10-24T09:14:19.766Z,8.20
2017-10-24T09:16:53.550Z,7.90
2017-10-24T09:22:44.930Z,8.43
2017-10-24T09:25:18.755Z,7.73
2017-10-24T09:27:53.158Z,7.60
2017-10-24T09:30:26.985Z,7.30
2017-10-24T09:33:00.811Z,7.20
2017-10-24T09:35:34.434Z,6.53
2017-10-24T09:38:07.959Z,7.50
2017-10-24T09:40:41.647Z,7.30
2017-10-24T09:43:15.161Z,6.50
2017-10-24T09:45:48.790Z,6.60
2017-10-24T09:48:22.370Z,6.20
2017-10-24T09:51:07.980Z,6.20
2017-10-24T09:53:41.570Z,6.50
2017-10-24T09:56:27.150Z,6.20
2017-10-24T09:59:00.655Z,6.17
2017-10-24T10:01:44.234Z,6.33
2017-10-24T10:04:18.094Z,5.17
2017-10-24T10:09:55.198Z,5.43
2017-10-24T10:12:29.734Z,5.30
2017-10-24T10:15:03.529Z,5.93
2017-10-24T10:17:37.127Z,5.30
2017-10-24T10:20:10.936Z,5.30
2017-10-24T10:22:44.735Z,5.27
2017-10-24T10:25:19.058Z,4.53
2017-10-24T10:27:52.654Z,5.33
2017-10-24T10:30:26.253Z,5.40
2017-10-24T10:32:59.865Z,6.60
2017-10-24T10:35:33.307Z,4.70
2017-10-24T10:38:07.173Z,6.57
2017-10-24T10:40:40.870Z,5.30
2017-10-24T10:43:14.363Z,4.60
2017-10-24T10:45:47.966Z,5.70
2017-10-24T10:48:21.542Z,5.20
2017-10-24T10:50:55.078Z,5.30
2017-10-24T10:53:28.722Z,5.30
2017-10-24T10:56:02.450Z,4.93
2017-10-24T10:58:36.022Z,5.30
2017-10-24T11:01:09.569Z,4.23
2017-10-24T11:03:43.234Z,4.90
2017-10-24T11:06:16.874Z,4.60
2017-10-24T11:08:50.434Z,4.90
2017-10-24T11:11:23.946Z,4.77
2017-10-24T11:13:57.575Z,4.60
2017-10-24T11:16:31.170Z,4.50
2017-10-24T11:19:04.788Z,4.87
2017-10-24T11:21:38.379Z,4.20
2017-10-24T11:24:11.970Z,4.73
2017-10-24T11:26:46.393Z,4.10
2017-10-24T11:29:19.874Z,4.70
2017-10-24T11:31:53.578Z,3.50
2017-10-24T11:34:27.726Z,3.90
2017-10-24T11:37:01.314Z,3.90
2017-10-24T11:39:34.959Z,3.80
2017-10-24T11:42:09.303Z,3.80
2017-10-24T11:44:42.986Z,3.73
2017-10-24T11:47:16.630Z,3.23
2017-10-24T11:49:50.137Z,4.23
2017-10-24T11:52:23.840Z,4.00
2017-10-24T11:54:57.551Z,3.10
2017-10-24T11:57:31.234Z,3.70
2017-10-24T12:00:04.930Z,3.80
2017-10-24T12:02:38.519Z,3.03
2017-10-24T12:05:12.285Z,3.67
2017-10-24T12:07:45.850Z,4.30
2017-10-24T12:10:19.451Z,3.80
2017-10-24T12:12:52.935Z,3.93
2017-10-24T12:15:26.651Z,3.83
2017-10-24T12:18:00.218Z,3.63
2017-10-24T12:20:33.850Z,3.37
2017-10-24T12:23:07.350Z,3.37
2017-10-24T12:25:40.922Z,3.50
2017-10-24T12:28:14.510Z,3.10
2017-10-24T12:30:48.159Z,3.03
2017-10-24T12:33:21.806Z,2.93
2017-10-24T12:35:55.408Z,3.27
2017-10-24T12:38:29.653Z,3.53
2017-10-24T12:41:03.159Z,3.90
2017-10-24T12:43:46.622Z,3.70
2017-10-24T12:46:20.641Z,3.20
2017-10-24T12:49:09.996Z,3.07
2017-10-24T12:51:43.542Z,3.30
2017-10-24T12:54:17.266Z,3.30
2017-10-24T12:56:50.854Z,3.47
2017-10-24T12:59:27.055Z,3.33
2017-10-24T13:02:00.606Z,3.80
2017-10-24T13:04:34.206Z,3.50
2017-10-24T13:07:07.859Z,3.80
2017-10-24T13:09:41.383Z,3.40
2017-10-24T13:12:14.894Z,3.37
2017-10-24T13:14:48.527Z,3.53
2017-10-24T13:17:22.101Z,3.23
2017-10-24T13:19:55.754Z,3.40
2017-10-24T13:22:29.349Z,3.07
2017-10-24T13:25:02.952Z,2.80
2017-10-24T13:27:36.450Z,3.27
2017-10-24T13:30:10.979Z,3.20
2017-10-24T13:32:45.389Z,3.57
2017-10-24T13:35:19.208Z,2.60
2017-10-24T13:37:53.718Z,3.23
2017-10-24T13:40:27.730Z,2.77
2017-10-24T13:43:01.434Z,3.27
2017-10-24T13:45:35.038Z,2.60
2017-10-24T13:48:08.542Z,2.93
2017-10-24T13:50:42.337Z,2.80
2017-10-24T13:53:15.942Z,2.83
2017-10-24T13:55:49.439Z,2.70
2017-10-24T13:58:22.942Z,3.23
2017-10-24T14:00:56.434Z,3.00
2017-10-24T14:03:30.930Z,3.17
2017-10-24T14:06:10.227Z,2.80
2017-10-24T14:09:04.686Z,2.40
2017-10-24T14:11:38.381Z,2.93
2017-10-24T14:14:12.918Z,3.33
2017-10-24T14:16:46.826Z,2.77
2017-10-24T14:19:20.492Z,3.03
2017-10-24T14:21:54.646Z,2.97
2017-10-24T14:24:29.087Z,3.10
2017-10-24T14:27:02.654Z,3.20
2017-10-24T14:29:36.357Z,3.60
2017-10-24T14:32:09.924Z,3.03
2017-10-24T14:34:43.507Z,3.10
2017-10-24T14:37:17.167Z,3.10
2017-10-24T14:39:50.714Z,3.60
2017-10-24T14:42:24.463Z,2.90
2017-10-24T14:44:58.901Z,4.03
2017-10-24T14:47:33.202Z,3.57
2017-10-24T14:50:07.006Z,3.13
2017-10-24T14:52:40.474Z,3.60
2017-10-24T14:55:13.999Z,3.90
2017-10-24T14:57:48.317Z,3.10
2017-10-24T15:00:22.742Z,3.93
2017-10-24T15:02:56.214Z,3.77
2017-10-24T15:05:29.834Z,4.40
2017-10-24T15:08:03.398Z,3.90
2017-10-24T15:10:37.254Z,3.70
2017-10-24T15:13:11.155Z,3.77
2017-10-24T15:15:44.809Z,3.50
2017-10-24T15:18:19.250Z,3.77
2017-10-24T15:20:52.988Z,4.43
2017-10-24T15:23:26.786Z,4.30
2017-10-24T15:26:00.393Z,3.70
2017-10-24T15:28:34.090Z,5.27
2017-10-24T15:31:07.895Z,4.93
2017-10-24T15:33:41.410Z,4.40
2017-10-24T15:36:14.949Z,5.80
2017-10-24T15:38:48.490Z,4.50
2017-10-24T15:41:22.056Z,4.33
2017-10-24T15:43:55.590Z,5.00
2017-10-24T15:46:29.135Z,4.13
2017-10-24T15:49:03.594Z,5.10
2017-10-24T15:51:37.297Z,6.00
2017-10-24T15:54:11.525Z,5.80
2017-10-24T15:56:45.118Z,5.30
2017-10-24T15:59:18.847Z,5.40
2017-10-24T16:01:53.421Z,5.27
2017-10-24T16:04:27.065Z,4.93
2017-10-24T16:07:00.657Z,5.03
2017-10-24T16:09:34.258Z,5.53
2017-10-24T16:12:07.766Z,5.57
2017-10-24T16:14:41.461Z,6.20
2017-10-24T16:17:15.062Z,6.30
2017-10-24T16:19:48.666Z,6.47
2017-10-24T16:22:22.470Z,7.20
2017-10-24T16:24:56.263Z,6.73
2017-10-24T16:27:29.918Z,7.13
2017-10-24T16:30:03.434Z,7.40
2017-10-24T16:32:38.206Z,7.60
2017-10-24T16:35:11.914Z,6.60
2017-10-24T16:37:46.226Z,7.20
2017-10-24T16:40:20.553Z,7.17
2017-10-24T16:42:54.446Z,6.10
2017-10-24T16:45:28.159Z,7.37
2017-10-24T16:48:01.863Z,7.10
2017-10-24T16:50:35.419Z,6.83
2017-10-24T16:53:09.266Z,6.87
2017-10-24T16:55:42.861Z,7.80
2017-10-24T16:58:16.376Z,6.97
2017-10-24T17:00:49.867Z,8.60
2017-10-24T17:03:23.567Z,7.33
2017-10-24T17:05:57.167Z,8.00
2017-10-24T17:08:30.776Z,7.00
2017-10-24T17:11:05.163Z,7.23
2017-10-24T17:13:38.778Z,6.50
2017-10-24T17:16:12.401Z,6.43
2017-10-24T17:18:45.881Z,5.93
2017-10-24T17:21:20.007Z,5.60
2017-10-24T17:23:54.422Z,6.47
2017-10-24T17:26:28.025Z,6.20
2017-10-24T17:29:01.574Z,7.73
2017-10-24T17:31:35.099Z,7.53
2017-10-24T17:34:09.438Z,6.93
2017-10-24T17:36:43.038Z,7.27
2017-10-24T17:39:16.735Z,8.20
2017-10-24T17:41:50.242Z,7.33
2017-10-24T17:44:24.162Z,14.23
2017-10-24T17:46:57.743Z,9.40
2017-10-24T17:49:31.272Z,7.60
2017-10-24T17:52:05.538Z,7.83
2017-10-24T17:54:39.751Z,7.90
2017-10-24T17:57:13.283Z,8.00
2017-10-24T17:59:46.943Z,8.47
2017-10-24T18:02:20.622Z,7.57
2017-10-24T18:04:54.155Z,9.03
2017-10-24T18:07:27.623Z,7.83
2017-10-24T18:10:01.234Z,7.73
2017-10-24T18:12:34.746Z,7.80
2017-10-24T18:15:08.271Z,8.33
2017-10-24T18:17:41.928Z,8.57
2017-10-24T18:20:15.454Z,8.03
2017-10-24T18:22:49.060Z,8.83
2017-10-24T18:25:22.595Z,7.70
2017-10-24T18:27:56.119Z,8.33
2017-10-24T18:30:29.584Z,8.73
2017-10-24T18:33:03.883Z,7.83
2017-10-24T18:35:37.475Z,8.00
2017-10-24T18:38:11.058Z,8.37
2017-10-24T18:40:44.710Z,8.43
2017-10-24T18:43:18.983Z,9.13
2017-10-24T18:45:52.505Z,8.47
2017-10-24T18:48:26.146Z,8.80
2017-10-24T18:50:59.619Z,10.47
2017-10-24T18:53:33.270Z,8.50
2017-10-24T18:56:07.713Z,8.93
2017-10-24T18:58:41.926Z,9.47
2017-10-24T19:01:15.466Z,8.60
2017-10-24T19:03:49.734Z,8.83
2017-10-24T19:06:23.271Z,8.53
2017-10-24T19:08:56.903Z,8.67
2017-10-24T19:11:30.419Z,9.47
2017-10-24T19:14:03.932Z,8.83
2017-10-24T19:16:37.579Z,9.23
2017-10-24T19:19:11.854Z,8.93
2017-10-24T19:21:46.172Z,8.53
2017-10-24T19:24:20.387Z,8.00
2017-10-24T19:26:53.910Z,8.83
2017-10-24T19:29:27.378Z,7.63
2017-10-24T19:32:01.030Z,8.70
2017-10-24T19:34:34.683Z,7.97
2017-10-24T19:37:08.201Z,8.70
2017-10-24T19:39:41.714Z,9.87
2017-10-24T19:42:15.163Z,8.80
2017-10-24T19:44:48.675Z,9.10
2017-10-24T19:47:22.323Z,8.47
2017-10-24T19:49:56.590Z,8.00
2017-10-24T19:52:30.135Z,8.70
2017-10-24T19:55:03.837Z,9.20
2017-10-24T19:57:38.126Z,10.27
2017-10-24T20:00:12.340Z,11.90
2017-10-24T20:02:46.819Z,7.60
2017-10-24T20:05:20.450Z,7.80
2017-10-24T20:07:54.099Z,8.10
2017-10-24T20:10:28.382Z,7.70
2017-10-24T20:13:02.586Z,8.10
2017-10-24T20:15:36.124Z,7.33
2017-10-24T20:18:10.409Z,7.83
2017-10-24T20:20:44.619Z,8.50
2017-10-24T20:23:18.840Z,8.87
2017-10-24T20:25:52.457Z,9.40
2017-10-24T20:28:26.059Z,9.30
2017-10-24T20:31:00.363Z,9.10
2017-10-24T20:33:33.928Z,8.40
2017-10-24T20:36:07.441Z,8.60
2017-10-24T20:38:41.078Z,8.50
2017-10-24T20:41:14.755Z,8.70
2017-10-24T20:43:48.268Z,7.60
2017-10-24T20:46:22.673Z,8.53
2017-10-24T20:48:56.886Z,8.10
2017-10-24T20:51:30.418Z,8.07
2017-10-24T20:54:04.698Z,9.10
2017-10-24T20:56:38.202Z,8.20
2017-10-24T20:59:11.713Z,8.80
2017-10-24T21:01:45.922Z,8.50
2017-10-24T21:04:20.135Z,8.70
2017-10-24T21:06:54.455Z,9.17
2017-10-24T21:09:28.666Z,8.10
2017-10-24T21:12:02.196Z,8.50
2017-10-24T21:14:35.826Z,9.47
2017-10-24T21:17:09.399Z,8.70
2017-10-24T21:19:43.154Z,11.53
2017-10-24T21:22:16.804Z,10.93
2017-10-24T21:24:50.298Z,11.07
2017-10-24T21:27:23.742Z,13.30
2017-10-24T21:29:57.306Z,8.80
2017-10-24T21:32:30.878Z,22.70
2017-10-24T21:35:04.471Z,13.67
2017-10-24T21:37:38.516Z,8.40
2017-10-24T21:40:11.994Z,8.97
2017-10-24T21:42:45.607Z,8.10
2017-10-24T21:45:20.645Z,8.47
2017-10-24T21:47:54.959Z,8.67
2017-10-24T21:50:28.424Z,8.50
2017-10-24T21:53:02.262Z,8.80
2017-10-24T21:55:35.871Z,8.73
2017-10-24T21:58:09.411Z,8.90
2017-10-24T22:00:51.037Z,8.40
2017-10-24T22:03:24.681Z,8.17
2017-10-24T22:05:58.406Z,8.33
2017-10-24T22:08:31.995Z,8.00
2017-10-24T22:11:06.549Z,9.30
2017-10-24T22:13:40.279Z,8.27
2017-10-24T22:16:14.002Z,8.43
2017-10-24T22:18:47.665Z,7.50
2017-10-24T22:21:21.300Z,7.93
2017-10-24T22:23:55.194Z,8.80
2017-10-24T22:26:28.802Z,7.37
2017-10-24T22:29:02.446Z,8.50
2017-10-24T22:31:36.119Z,6.90
2017-10-24T22:34:10.598Z,7.10
2017-10-24T22:36:44.146Z,6.90
2017-10-24T22:39:17.618Z,7.43
2017-10-24T22:41:51.386Z,7.00
2017-10-24T22:44:25.131Z,7.23
2017-10-24T22:46:58.730Z,6.50
2017-10-24T22:49:33.150Z,6.83
2017-10-24T22:52:06.858Z,6.63
2017-10-24T22:54:40.554Z,7.00
2017-10-24T22:57:14.162Z,6.50
2017-10-24T22:59:47.763Z,6.13
2017-10-24T23:02:22.082Z,6.27
2017-10-24T23:04:56.362Z,6.33
2017-10-24T23:07:30.119Z,6.33
2017-10-24T23:10:03.751Z,6.07
2017-10-24T23:12:37.378Z,6.60
2017-10-24T23:15:10.998Z,6.40
2017-10-24T23:17:44.806Z,6.33
2017-10-24T23:20:18.612Z,5.40
2017-10-24T23:22:52.311Z,5.63
2017-10-24T23:25:26.738Z,5.93
2017-10-24T23:28:00.213Z,5.30
2017-10-24T23:30:33.839Z,5.80
2017-10-24T23:33:07.398Z,6.80
2017-10-24T23:35:41.043Z,6.07
2017-10-24T23:38:14.649Z,8.13
2017-10-24T23:40:48.447Z,6.70
2017-10-24T23:43:22.014Z,6.90
2017-10-24T23:45:55.650Z,6.20
2017-10-24T23:48:30.042Z,7.50
2017-10-24T23:51:04.189Z,6.53
2017-10-24T23:53:37.759Z,6.80
2017-10-24T23:56:11.478Z,6.40
2017-10-24T23:58:46.215Z,6.83
